createdAt,value
2019-02-14T00:03:23.465Z,102937.70
2019-02-14T00:08:26.792Z,102949.55
2019-02-14T00:13:30.129Z,102951.91
2019-02-14T00:18:33.455Z,102956.53
2019-02-14T00:23:36.760Z,102967.56
2019-02-14T00:28:40.081Z,102979.50
2019-02-14T00:33:43.476Z,102981.28
2019-02-14T00:38:46.849Z,102984.94
2019-02-14T00:43:50.155Z,102992.81
2019-02-14T00:48:53.459Z,102992.09
2019-02-14T00:53:56.896Z,102974.39
2019-02-14T00:59:00.229Z,102980.65
2019-02-14T01:04:03.563Z,102973.34
2019-02-14T01:09:07.067Z,102981.12
2019-02-14T01:14:10.462Z,102995.70
2019-02-14T01:19:15.464Z,102998.50
2019-02-14T01:24:18.963Z,103003.42
2019-02-14T01:29:22.337Z,103003.01
2019-02-14T01:34:25.750Z,102992.37
2019-02-14T01:39:29.147Z,102993.76
2019-02-14T01:44:32.483Z,102987.42
2019-02-14T01:49:35.794Z,102992.98
2019-02-14T01:54:39.206Z,102985.08
2019-02-14T01:59:42.539Z,102989.70
2019-02-14T02:04:45.869Z,102986.94
2019-02-14T02:09:49.177Z,102990.11
2019-02-14T02:14:52.502Z,102982.39
2019-02-14T02:19:55.833Z,102980.08
2019-02-14T02:24:59.165Z,102978.98
2019-02-14T02:30:02.867Z,102986.37
2019-02-14T02:35:07.535Z,102993.42
2019-02-14T02:40:10.852Z,103003.91
2019-02-14T02:45:14.177Z,102998.46
2019-02-14T02:50:17.501Z,102996.77
2019-02-14T02:55:20.904Z,102996.59
2019-02-14T03:00:24.217Z,103000.50
2019-02-14T03:05:27.643Z,103004.64
2019-02-14T03:10:30.969Z,102997.59
2019-02-14T03:15:34.301Z,103007.81
2019-02-14T03:20:37.639Z,103013.66
2019-02-14T03:25:40.968Z,103015.53
2019-02-14T03:30:44.315Z,103029.33
2019-02-14T03:35:47.642Z,103022.84
2019-02-14T03:40:50.967Z,103022.43
2019-02-14T03:45:54.365Z,103039.22
2019-02-14T03:50:57.691Z,103031.75
2019-02-14T03:56:01.029Z,103029.00
2019-02-14T04:01:04.326Z,103031.19
2019-02-14T04:06:07.657Z,103044.33
2019-02-14T04:11:11.096Z,103059.35
2019-02-14T04:16:14.404Z,103068.19
2019-02-14T04:21:17.732Z,103068.94
2019-02-14T04:26:21.047Z,103069.91
2019-02-14T04:31:24.399Z,103085.91
2019-02-14T04:36:35.548Z,103077.63
2019-02-14T04:41:32.827Z,103071.70
2019-02-14T04:46:36.161Z,103076.17
2019-02-14T04:51:39.496Z,103093.09
2019-02-14T04:56:42.828Z,103094.97
2019-02-14T05:01:46.230Z,103116.67
2019-02-14T05:06:49.555Z,103115.22
2019-02-14T05:11:52.885Z,103119.02
2019-02-14T05:16:56.267Z,103125.25
2019-02-14T05:21:59.684Z,103117.56
2019-02-14T05:27:03.017Z,103119.02
2019-02-14T05:32:06.354Z,103129.91
2019-02-14T05:37:09.801Z,103136.00
2019-02-14T05:42:13.140Z,103141.92
2019-02-14T05:47:16.479Z,103137.27
2019-02-14T05:52:19.781Z,103147.92
2019-02-14T05:57:23.193Z,103165.80
2019-02-14T06:02:26.519Z,103172.47
2019-02-14T06:07:29.851Z,103184.75
2019-02-14T06:12:33.162Z,103187.47
2019-02-14T06:17:36.562Z,103200.78
2019-02-14T06:22:39.886Z,103188.03
2019-02-14T06:27:43.222Z,103162.22
2019-02-14T06:32:46.553Z,103171.80
2019-02-14T06:37:49.909Z,103148.23
2019-02-14T06:42:53.239Z,103130.40
2019-02-14T06:47:56.593Z,103124.95
2019-02-14T06:52:59.911Z,103130.55
2019-02-14T06:58:03.246Z,103178.22
2019-02-14T07:03:06.576Z,103183.70
2019-02-14T07:08:09.946Z,103171.05
2019-02-14T07:13:13.262Z,103182.72
2019-02-14T07:18:16.593Z,103180.86
2019-02-14T07:23:19.954Z,103176.84
2019-02-14T07:28:23.358Z,103178.52
2019-02-14T07:33:26.740Z,103190.19
2019-02-14T07:38:30.191Z,103184.11
2019-02-14T07:43:33.568Z,103187.36
2019-02-14T07:48:36.901Z,103199.29
2019-02-14T07:53:40.235Z,103191.56
2019-02-14T07:58:43.549Z,103178.03
2019-02-14T08:03:46.961Z,103186.38
2019-02-14T08:08:50.292Z,103196.60
2019-02-14T08:13:53.639Z,103193.77
2019-02-14T08:18:57.097Z,103192.73
2019-02-14T08:24:00.499Z,103201.49
2019-02-14T08:29:03.914Z,103192.31
2019-02-14T08:34:07.222Z,103195.16
2019-02-14T08:39:10.536Z,103208.39
2019-02-14T08:44:13.845Z,103213.91
2019-02-14T08:49:17.172Z,103197.84
2019-02-14T08:59:41.484Z,103182.02
2019-02-14T09:04:44.864Z,103185.75
2019-02-14T09:09:48.192Z,103177.88
2019-02-14T09:14:51.523Z,103182.92
2019-02-14T09:19:54.874Z,103185.94
2019-02-14T09:24:58.325Z,103194.22
2019-02-14T09:30:01.671Z,103198.33
2019-02-14T09:35:07.012Z,103209.37
2019-02-14T09:40:16.076Z,103206.23
2019-02-14T09:45:19.405Z,103200.19
2019-02-14T09:50:22.879Z,103208.92
2019-02-14T09:55:26.211Z,103213.02
2019-02-14T10:00:29.540Z,103224.89
2019-02-14T10:05:32.982Z,103224.55
2019-02-14T10:10:36.339Z,103242.34
2019-02-14T10:15:39.638Z,103244.29
2019-02-14T10:20:42.970Z,103247.58
2019-02-14T10:25:46.375Z,103247.46
2019-02-14T10:30:49.691Z,103262.72
2019-02-14T10:35:53.021Z,103270.03
2019-02-14T10:40:56.347Z,103268.58
2019-02-14T10:45:59.675Z,103254.48
2019-02-14T10:51:03.049Z,103264.36
2019-02-14T10:56:06.437Z,103260.64
2019-02-14T11:01:09.801Z,103249.81
2019-02-14T11:06:13.131Z,103249.81
2019-02-14T11:11:16.521Z,103251.60
2019-02-14T11:16:19.954Z,103250.08
2019-02-14T11:21:23.288Z,103245.45
2019-02-14T11:26:26.673Z,103240.97
2019-02-14T11:31:29.985Z,103245.94
2019-02-14T11:36:33.316Z,103243.17
2019-02-14T11:41:36.753Z,103235.16
2019-02-14T11:46:40.089Z,103243.59
2019-02-14T11:51:43.504Z,103246.27
2019-02-14T11:56:46.868Z,103248.62
2019-02-14T12:01:55.382Z,103253.52
2019-02-14T12:06:55.331Z,103247.17
2019-02-14T12:11:58.732Z,103248.77
2019-02-14T12:17:02.254Z,103236.47
2019-02-14T12:22:05.589Z,103233.77
2019-02-14T12:27:08.931Z,103229.22
2019-02-14T12:32:12.260Z,103243.25
2019-02-14T12:37:16.124Z,103236.05
2019-02-14T12:42:19.577Z,103226.95
2019-02-14T12:47:22.972Z,103220.45
2019-02-14T12:52:26.376Z,103216.13
2019-02-14T12:57:29.721Z,103213.84
2019-02-14T13:02:33.285Z,103220.19
2019-02-14T13:07:36.603Z,103214.81
2019-02-14T13:12:40.043Z,103212.87
2019-02-14T13:17:44.494Z,103203.06
2019-02-14T13:22:47.903Z,103195.12
2019-02-14T13:27:51.219Z,103193.63
2019-02-14T13:32:54.557Z,103196.23
2019-02-14T13:37:57.897Z,103188.44
2019-02-14T13:43:01.222Z,103181.87
2019-02-14T13:48:04.572Z,103188.63
2019-02-14T13:53:07.912Z,103180.00
2019-02-14T13:58:11.274Z,103181.23
2019-02-14T14:03:14.670Z,103180.97
2019-02-14T14:08:18.113Z,103179.03
2019-02-14T14:13:21.449Z,103184.97
2019-02-14T14:18:24.833Z,103191.38
2019-02-14T14:23:28.172Z,103192.98
2019-02-14T14:28:31.527Z,103186.42
2019-02-14T14:33:34.928Z,103185.27
2019-02-14T14:38:38.272Z,103189.25
2019-02-14T14:43:43.254Z,103193.40
2019-02-14T14:48:46.615Z,103194.70
2019-02-14T14:53:49.942Z,103185.86
2019-02-14T14:58:53.288Z,103186.98
2019-02-14T15:03:56.604Z,103178.36
2019-02-14T15:08:59.936Z,103182.35
2019-02-14T15:14:03.312Z,103179.03
2019-02-14T15:19:06.654Z,103181.53
2019-02-14T15:24:09.986Z,103185.03
2019-02-14T15:29:13.321Z,103187.39
2019-02-14T15:34:16.656Z,103188.20
2019-02-14T15:39:20.011Z,103194.06
2019-02-14T15:44:23.359Z,103187.46
2019-02-14T15:49:26.702Z,103189.03
2019-02-14T15:54:31.384Z,103188.28
2019-02-14T15:59:35.142Z,103191.38
2019-02-14T16:04:38.584Z,103192.84
2019-02-14T16:09:41.960Z,103186.75
2019-02-14T16:14:45.296Z,103196.08
2019-02-14T16:19:48.692Z,103192.57
2019-02-14T16:24:52.030Z,103193.98
2019-02-14T16:30:00.501Z,103188.02
2019-02-14T16:35:04.314Z,103188.97
2019-02-14T16:40:09.584Z,103186.89
2019-02-14T16:45:12.966Z,103191.52
2019-02-14T16:50:16.322Z,103185.70
2019-02-14T16:55:19.654Z,103181.52
2019-02-14T17:00:23.161Z,103175.03
2019-02-14T17:05:26.471Z,103170.40
2019-02-14T17:10:36.666Z,103177.63
2019-02-14T17:15:34.928Z,103167.75
2019-02-14T17:20:38.330Z,103160.09
2019-02-14T17:25:41.669Z,103158.86
2019-02-14T17:30:45.008Z,103155.75
2019-02-14T17:35:48.506Z,103154.86
2019-02-14T17:40:51.879Z,103154.94
2019-02-14T17:45:55.294Z,103154.56
2019-02-14T17:50:58.641Z,103136.57
2019-02-14T17:56:02.048Z,103142.50
2019-02-14T18:01:05.406Z,103140.56
2019-02-14T18:06:08.766Z,103144.38
2019-02-14T18:11:12.054Z,103133.17
2019-02-14T18:16:15.445Z,103124.55
2019-02-14T18:21:18.776Z,103124.47
2019-02-14T18:26:22.187Z,103120.41
2019-02-14T18:31:25.525Z,103117.28
2019-02-14T18:36:28.899Z,103126.80
2019-02-14T18:41:32.203Z,103132.09
2019-02-14T18:46:35.619Z,103124.11
2019-02-14T18:51:39.427Z,103134.83
2019-02-14T18:56:42.846Z,103168.95
2019-02-14T19:01:46.248Z,103163.61
2019-02-14T19:06:49.583Z,103163.06
2019-02-14T19:11:53.058Z,103159.78
2019-02-14T19:16:56.382Z,103165.71
2019-02-14T19:21:59.709Z,103159.29
2019-02-14T19:27:03.035Z,103148.73
2019-02-14T19:32:06.408Z,103131.17
2019-02-14T19:37:09.737Z,103134.35
2019-02-14T19:42:13.086Z,103130.05
2019-02-14T19:47:16.419Z,103134.19
2019-02-14T19:52:19.742Z,103132.81
2019-02-14T19:57:23.298Z,103127.77
2019-02-14T20:02:26.629Z,103133.55
2019-02-14T20:07:30.030Z,103133.14
2019-02-14T20:12:33.495Z,103131.68
2019-02-14T20:17:36.813Z,103124.29
2019-02-14T20:22:40.151Z,103128.19
2019-02-14T20:27:43.457Z,103126.72
2019-02-14T20:32:46.786Z,103129.56
2019-02-14T20:37:50.115Z,103129.33
2019-02-14T20:42:53.569Z,103138.52
2019-02-14T20:47:57.439Z,103139.36
2019-02-14T20:53:00.905Z,103136.72
2019-02-14T20:58:04.298Z,103134.93
2019-02-14T21:03:07.768Z,103136.67
2019-02-14T21:08:11.138Z,103134.08
2019-02-14T21:13:14.493Z,103128.72
2019-02-14T21:18:17.865Z,103122.38
2019-02-14T21:23:21.235Z,103134.00
2019-02-14T21:28:24.541Z,103130.91
2019-02-14T21:33:27.843Z,103127.02
2019-02-14T21:38:31.179Z,103127.50
2019-02-14T21:43:34.521Z,103120.03
2019-02-14T21:48:37.860Z,103129.05
2019-02-14T21:53:41.195Z,103127.17
2019-02-14T21:58:44.583Z,103118.73
2019-02-14T22:03:47.947Z,103100.16
2019-02-14T22:08:51.291Z,103104.63
2019-02-14T22:13:54.621Z,103114.37
2019-02-14T22:18:58.043Z,103091.42
2019-02-14T22:24:01.436Z,103116.25
2019-02-14T22:29:04.762Z,103109.66
2019-02-14T22:34:08.164Z,103106.82
2019-02-14T22:39:11.508Z,103094.09
2019-02-14T22:44:14.830Z,103098.23
2019-02-14T22:49:18.160Z,103101.54
2019-02-14T22:54:21.500Z,103102.11
2019-02-14T22:59:24.985Z,103091.53
2019-02-14T23:04:58.863Z,103077.72
2019-02-14T23:10:02.181Z,103079.51
2019-02-14T23:15:07.230Z,103077.64
2019-02-14T23:20:10.540Z,103079.19
2019-02-14T23:25:13.839Z,103078.38
2019-02-14T23:30:17.156Z,103060.89
2019-02-14T23:35:20.470Z,103068.91
2019-02-14T23:40:23.762Z,103074.44
2019-02-14T23:45:27.084Z,103085.48
2019-02-14T23:50:30.400Z,103071.67
2019-02-14T23:55:33.703Z,103062.98
